sensor_id;sensor_type;location;lat;lon;timestamp;P1;durP1;ratioP1;P2;durP2;ratioP2
53022;SDS011;38913;44.338;11.206;2023-04-25T00:02:23;9.87;;;2.13;;
53022;SDS011;38913;44.338;11.206;2023-04-25T00:04:49;8.68;;;2.05;;
53022;SDS011;38913;44.338;11.206;2023-04-25T00:07:15;8.20;;;2.67;;
53022;SDS011;38913;44.338;11.206;2023-04-25T00:09:41;10.63;;;2.13;;
53022;SDS011;38913;44.338;11.206;2023-04-25T00:12:06;7.72;;;2.00;;
53022;SDS011;38913;44.338;11.206;2023-04-25T00:14:31;7.47;;;2.13;;
53022;SDS011;38913;44.338;11.206;2023-04-25T00:16:59;10.05;;;1.90;;
53022;SDS011;38913;44.338;11.206;2023-04-25T00:19:24;8.77;;;2.38;;
53022;SDS011;38913;44.338;11.206;2023-04-25T00:21:51;12.90;;;2.05;;
53022;SDS011;38913;44.338;11.206;2023-04-25T00:24:17;10.52;;;2.13;;
53022;SDS011;38913;44.338;11.206;2023-04-25T00:26:42;8.90;;;2.27;;
53022;SDS011;38913;44.338;11.206;2023-04-25T00:29:07;8.63;;;1.90;;
53022;SDS011;38913;44.338;11.206;2023-04-25T00:31:32;6.37;;;1.90;;
53022;SDS011;38913;44.338;11.206;2023-04-25T00:33:57;7.40;;;2.10;;
53022;SDS011;38913;44.338;11.206;2023-04-25T00:36:23;7.70;;;2.47;;
53022;SDS011;38913;44.338;11.206;2023-04-25T00:38:48;8.20;;;2.03;;
53022;SDS011;38913;44.338;11.206;2023-04-25T00:41:13;8.80;;;2.17;;
53022;SDS011;38913;44.338;11.206;2023-04-25T00:43:39;9.45;;;2.40;;
53022;SDS011;38913;44.338;11.206;2023-04-25T00:46:04;8.40;;;2.78;;
53022;SDS011;38913;44.338;11.206;2023-04-25T00:48:29;8.90;;;2.10;;
53022;SDS011;38913;44.338;11.206;2023-04-25T00:50:56;7.70;;;2.00;;
53022;SDS011;38913;44.338;11.206;2023-04-25T00:53:22;8.18;;;2.00;;
53022;SDS011;38913;44.338;11.206;2023-04-25T00:55:47;9.80;;;2.00;;
53022;SDS011;38913;44.338;11.206;2023-04-25T00:58:15;8.13;;;2.38;;
53022;SDS011;38913;44.338;11.206;2023-04-25T01:00:41;9.35;;;2.17;;
53022;SDS011;38913;44.338;11.206;2023-04-25T01:03:06;10.80;;;2.83;;
53022;SDS011;38913;44.338;11.206;2023-04-25T01:05:33;6.20;;;2.17;;
53022;SDS011;38913;44.338;11.206;2023-04-25T01:07:58;8.20;;;2.20;;
53022;SDS011;38913;44.338;11.206;2023-04-25T01:10:23;8.45;;;1.85;;
53022;SDS011;38913;44.338;11.206;2023-04-25T01:12:49;10.95;;;2.60;;
53022;SDS011;38913;44.338;11.206;2023-04-25T01:15:14;10.70;;;1.90;;
53022;SDS011;38913;44.338;11.206;2023-04-25T01:17:39;5.43;;;1.77;;
53022;SDS011;38913;44.338;11.206;2023-04-25T01:20:05;8.05;;;1.80;;
53022;SDS011;38913;44.338;11.206;2023-04-25T01:22:32;8.25;;;2.03;;
53022;SDS011;38913;44.338;11.206;2023-04-25T01:24:57;5.63;;;1.98;;
53022;SDS011;38913;44.338;11.206;2023-04-25T01:27:23;7.07;;;1.92;;
53022;SDS011;38913;44.338;11.206;2023-04-25T01:29:48;7.75;;;1.98;;
53022;SDS011;38913;44.338;11.206;2023-04-25T01:32:14;11.05;;;2.25;;
53022;SDS011;38913;44.338;11.206;2023-04-25T01:34:40;10.60;;;2.22;;
53022;SDS011;38913;44.338;11.206;2023-04-25T01:37:05;11.00;;;2.67;;
53022;SDS011;38913;44.338;11.206;2023-04-25T01:39:31;8.32;;;1.60;;
53022;SDS011;38913;44.338;11.206;2023-04-25T01:41:56;6.75;;;2.00;;
53022;SDS011;38913;44.338;11.206;2023-04-25T01:44:21;6.50;;;1.83;;
53022;SDS011;38913;44.338;11.206;2023-04-25T01:46:47;6.70;;;2.00;;
53022;SDS011;38913;44.338;11.206;2023-04-25T01:49:12;6.83;;;1.87;;
53022;SDS011;38913;44.338;11.206;2023-04-25T01:51:37;6.07;;;1.70;;
53022;SDS011;38913;44.338;11.206;2023-04-25T01:54:02;8.40;;;2.23;;
53022;SDS011;38913;44.338;11.206;2023-04-25T01:56:32;6.55;;;1.92;;
53022;SDS011;38913;44.338;11.206;2023-04-25T01:58:57;8.43;;;2.40;;
53022;SDS011;38913;44.338;11.206;2023-04-25T02:01:23;8.70;;;2.13;;
53022;SDS011;38913;44.338;11.206;2023-04-25T02:03:48;5.18;;;1.90;;
53022;SDS011;38913;44.338;11.206;2023-04-25T02:06:13;9.17;;;2.33;;
53022;SDS011;38913;44.338;11.206;2023-04-25T02:08:38;6.07;;;1.70;;
53022;SDS011;38913;44.338;11.206;2023-04-25T02:11:04;8.30;;;1.70;;
53022;SDS011;38913;44.338;11.206;2023-04-25T02:13:29;9.30;;;1.88;;
53022;SDS011;38913;44.338;11.206;2023-04-25T02:15:54;6.82;;;2.20;;
53022;SDS011;38913;44.338;11.206;2023-04-25T02:18:20;8.30;;;1.73;;
53022;SDS011;38913;44.338;11.206;2023-04-25T02:20:46;4.05;;;1.65;;
53022;SDS011;38913;44.338;11.206;2023-04-25T02:23:11;8.80;;;2.30;;
53022;SDS011;38913;44.338;11.206;2023-04-25T02:25:36;6.97;;;1.70;;
53022;SDS011;38913;44.338;11.206;2023-04-25T02:28:02;8.67;;;1.70;;
53022;SDS011;38913;44.338;11.206;2023-04-25T02:30:27;8.48;;;2.50;;
53022;SDS011;38913;44.338;11.206;2023-04-25T02:32:52;5.80;;;1.73;;
53022;SDS011;38913;44.338;11.206;2023-04-25T02:35:17;6.10;;;1.80;;
53022;SDS011;38913;44.338;11.206;2023-04-25T02:37:43;7.53;;;1.95;;
53022;SDS011;38913;44.338;11.206;2023-04-25T02:40:08;7.33;;;2.10;;
53022;SDS011;38913;44.338;11.206;2023-04-25T02:42:34;7.80;;;2.00;;
53022;SDS011;38913;44.338;11.206;2023-04-25T02:44:59;7.00;;;2.30;;
53022;SDS011;38913;44.338;11.206;2023-04-25T02:47:24;5.60;;;1.60;;
53022;SDS011;38913;44.338;11.206;2023-04-25T02:49:50;6.20;;;1.80;;
53022;SDS011;38913;44.338;11.206;2023-04-25T02:52:15;9.65;;;1.80;;
53022;SDS011;38913;44.338;11.206;2023-04-25T02:54:40;7.65;;;2.40;;
53022;SDS011;38913;44.338;11.206;2023-04-25T02:57:06;6.43;;;1.70;;
53022;SDS011;38913;44.338;11.206;2023-04-25T02:59:31;9.15;;;3.60;;
53022;SDS011;38913;44.338;11.206;2023-04-25T03:01:56;7.28;;;1.67;;
53022;SDS011;38913;44.338;11.206;2023-04-25T03:04:21;7.57;;;1.80;;
53022;SDS011;38913;44.338;11.206;2023-04-25T03:06:48;7.70;;;2.30;;
53022;SDS011;38913;44.338;11.206;2023-04-25T03:09:14;4.97;;;1.60;;
53022;SDS011;38913;44.338;11.206;2023-04-25T03:11:39;6.07;;;2.03;;
53022;SDS011;38913;44.338;11.206;2023-04-25T03:14:05;4.30;;;1.50;;
53022;SDS011;38913;44.338;11.206;2023-04-25T03:16:30;7.67;;;1.60;;
53022;SDS011;38913;44.338;11.206;2023-04-25T03:18:56;2.80;;;1.42;;
53022;SDS011;38913;44.338;11.206;2023-04-25T03:21:21;11.25;;;2.10;;
53022;SDS011;38913;44.338;11.206;2023-04-25T03:23:46;7.17;;;2.07;;
53022;SDS011;38913;44.338;11.206;2023-04-25T03:26:12;5.27;;;1.70;;
53022;SDS011;38913;44.338;11.206;2023-04-25T03:28:38;5.60;;;1.63;;
53022;SDS011;38913;44.338;11.206;2023-04-25T03:31:04;6.47;;;1.73;;
53022;SDS011;38913;44.338;11.206;2023-04-25T03:33:29;8.40;;;1.92;;
53022;SDS011;38913;44.338;11.206;2023-04-25T03:35:55;7.65;;;2.00;;
53022;SDS011;38913;44.338;11.206;2023-04-25T03:38:20;5.20;;;1.57;;
53022;SDS011;38913;44.338;11.206;2023-04-25T03:40:45;5.97;;;2.00;;
53022;SDS011;38913;44.338;11.206;2023-04-25T03:43:11;4.60;;;1.67;;
53022;SDS011;38913;44.338;11.206;2023-04-25T03:45:36;6.13;;;1.73;;
53022;SDS011;38913;44.338;11.206;2023-04-25T03:48:01;9.60;;;2.53;;
53022;SDS011;38913;44.338;11.206;2023-04-25T03:50:26;5.80;;;1.73;;
53022;SDS011;38913;44.338;11.206;2023-04-25T03:52:52;5.68;;;1.70;;
53022;SDS011;38913;44.338;11.206;2023-04-25T03:55:17;8.13;;;1.90;;
53022;SDS011;38913;44.338;11.206;2023-04-25T03:57:42;5.30;;;1.67;;
53022;SDS011;38913;44.338;11.206;2023-04-25T04:00:07;6.53;;;2.00;;
53022;SDS011;38913;44.338;11.206;2023-04-25T04:02:33;8.70;;;1.73;;
53022;SDS011;38913;44.338;11.206;2023-04-25T04:04:59;8.10;;;2.13;;
53022;SDS011;38913;44.338;11.206;2023-04-25T04:07:25;4.65;;;1.88;;
53022;SDS011;38913;44.338;11.206;2023-04-25T04:09:50;5.40;;;1.80;;
53022;SDS011;38913;44.338;11.206;2023-04-25T04:12:15;6.47;;;1.80;;
53022;SDS011;38913;44.338;11.206;2023-04-25T04:14:40;6.43;;;2.10;;
53022;SDS011;38913;44.338;11.206;2023-04-25T04:17:06;8.13;;;2.00;;
53022;SDS011;38913;44.338;11.206;2023-04-25T04:19:31;5.95;;;1.52;;
53022;SDS011;38913;44.338;11.206;2023-04-25T04:21:56;6.90;;;2.00;;
53022;SDS011;38913;44.338;11.206;2023-04-25T04:24:21;9.30;;;1.80;;
53022;SDS011;38913;44.338;11.206;2023-04-25T04:26:46;7.13;;;1.73;;
53022;SDS011;38913;44.338;11.206;2023-04-25T04:29:12;4.97;;;1.70;;
53022;SDS011;38913;44.338;11.206;2023-04-25T04:31:45;6.38;;;1.90;;
53022;SDS011;38913;44.338;11.206;2023-04-25T04:34:10;6.33;;;1.87;;
53022;SDS011;38913;44.338;11.206;2023-04-25T04:36:35;6.07;;;1.70;;
53022;SDS011;38913;44.338;11.206;2023-04-25T04:39:01;6.30;;;1.60;;
53022;SDS011;38913;44.338;11.206;2023-04-25T04:41:28;4.57;;;1.60;;
53022;SDS011;38913;44.338;11.206;2023-04-25T04:43:53;5.57;;;1.50;;
53022;SDS011;38913;44.338;11.206;2023-04-25T04:46:20;4.85;;;1.65;;
53022;SDS011;38913;44.338;11.206;2023-04-25T04:48:46;9.27;;;2.42;;
53022;SDS011;38913;44.338;11.206;2023-04-25T04:51:12;6.15;;;1.88;;
53022;SDS011;38913;44.338;11.206;2023-04-25T04:53:37;7.27;;;1.97;;
53022;SDS011;38913;44.338;11.206;2023-04-25T04:56:02;4.10;;;1.80;;
53022;SDS011;38913;44.338;11.206;2023-04-25T04:58:27;7.05;;;2.33;;
53022;SDS011;38913;44.338;11.206;2023-04-25T05:00:54;7.65;;;2.60;;
53022;SDS011;38913;44.338;11.206;2023-04-25T05:03:20;5.88;;;1.98;;
53022;SDS011;38913;44.338;11.206;2023-04-25T05:05:45;8.52;;;1.90;;
53022;SDS011;38913;44.338;11.206;2023-04-25T05:08:10;4.97;;;1.55;;
53022;SDS011;38913;44.338;11.206;2023-04-25T05:10:36;8.00;;;1.73;;
53022;SDS011;38913;44.338;11.206;2023-04-25T05:13:01;6.23;;;1.60;;
53022;SDS011;38913;44.338;11.206;2023-04-25T05:15:26;7.40;;;1.90;;
53022;SDS011;38913;44.338;11.206;2023-04-25T05:17:51;7.50;;;1.80;;
53022;SDS011;38913;44.338;11.206;2023-04-25T05:20:17;6.77;;;2.23;;
53022;SDS011;38913;44.338;11.206;2023-04-25T05:22:43;9.10;;;2.00;;
53022;SDS011;38913;44.338;11.206;2023-04-25T05:25:09;4.53;;;1.80;;
53022;SDS011;38913;44.338;11.206;2023-04-25T05:27:34;6.65;;;1.55;;
53022;SDS011;38913;44.338;11.206;2023-04-25T05:30:00;5.13;;;1.80;;
53022;SDS011;38913;44.338;11.206;2023-04-25T05:32:25;6.17;;;1.50;;
53022;SDS011;38913;44.338;11.206;2023-04-25T05:34:50;8.27;;;1.88;;
53022;SDS011;38913;44.338;11.206;2023-04-25T05:37:16;8.30;;;2.05;;
53022;SDS011;38913;44.338;11.206;2023-04-25T05:39:41;7.63;;;2.17;;
53022;SDS011;38913;44.338;11.206;2023-04-25T05:42:06;5.83;;;2.10;;
53022;SDS011;38913;44.338;11.206;2023-04-25T05:44:31;5.50;;;2.17;;
53022;SDS011;38913;44.338;11.206;2023-04-25T05:46:57;6.70;;;1.80;;
53022;SDS011;38913;44.338;11.206;2023-04-25T05:49:22;6.03;;;1.83;;
53022;SDS011;38913;44.338;11.206;2023-04-25T05:51:47;6.50;;;2.17;;
53022;SDS011;38913;44.338;11.206;2023-04-25T05:54:12;8.00;;;1.60;;
53022;SDS011;38913;44.338;11.206;2023-04-25T05:56:38;6.90;;;2.17;;
53022;SDS011;38913;44.338;11.206;2023-04-25T05:59:03;8.50;;;2.23;;
53022;SDS011;38913;44.338;11.206;2023-04-25T06:01:28;4.73;;;2.00;;
53022;SDS011;38913;44.338;11.206;2023-04-25T06:03:53;5.33;;;2.10;;
53022;SDS011;38913;44.338;11.206;2023-04-25T06:06:18;8.60;;;2.37;;
53022;SDS011;38913;44.338;11.206;2023-04-25T06:08:44;5.00;;;1.83;;
53022;SDS011;38913;44.338;11.206;2023-04-25T06:11:09;7.20;;;2.30;;
53022;SDS011;38913;44.338;11.206;2023-04-25T06:13:35;6.60;;;3.10;;
53022;SDS011;38913;44.338;11.206;2023-04-25T06:16:00;10.30;;;4.63;;
53022;SDS011;38913;44.338;11.206;2023-04-25T06:18:25;7.73;;;2.70;;
53022;SDS011;38913;44.338;11.206;2023-04-25T06:20:50;9.30;;;3.30;;
53022;SDS011;38913;44.338;11.206;2023-04-25T06:23:16;9.60;;;2.73;;
53022;SDS011;38913;44.338;11.206;2023-04-25T06:25:41;5.40;;;2.07;;
53022;SDS011;38913;44.338;11.206;2023-04-25T06:28:06;6.67;;;2.97;;
53022;SDS011;38913;44.338;11.206;2023-04-25T06:30:31;8.20;;;2.40;;
53022;SDS011;38913;44.338;11.206;2023-04-25T06:32:56;10.83;;;2.87;;
53022;SDS011;38913;44.338;11.206;2023-04-25T06:35:22;7.50;;;2.23;;
53022;SDS011;38913;44.338;11.206;2023-04-25T06:37:47;8.13;;;1.93;;
53022;SDS011;38913;44.338;11.206;2023-04-25T06:40:12;8.43;;;2.27;;
53022;SDS011;38913;44.338;11.206;2023-04-25T06:42:38;4.15;;;2.17;;
53022;SDS011;38913;44.338;11.206;2023-04-25T06:45:03;7.53;;;2.70;;
53022;SDS011;38913;44.338;11.206;2023-04-25T06:47:28;6.57;;;2.10;;
53022;SDS011;38913;44.338;11.206;2023-04-25T06:49:54;6.13;;;2.28;;
53022;SDS011;38913;44.338;11.206;2023-04-25T06:52:20;8.90;;;2.63;;
53022;SDS011;38913;44.338;11.206;2023-04-25T06:54:45;5.43;;;1.80;;
53022;SDS011;38913;44.338;11.206;2023-04-25T06:57:10;5.87;;;2.00;;
53022;SDS011;38913;44.338;11.206;2023-04-25T06:59:35;6.73;;;2.10;;
53022;SDS011;38913;44.338;11.206;2023-04-25T07:02:01;7.30;;;2.37;;
53022;SDS011;38913;44.338;11.206;2023-04-25T07:04:26;6.20;;;2.20;;
53022;SDS011;38913;44.338;11.206;2023-04-25T07:06:52;4.45;;;1.70;;
53022;SDS011;38913;44.338;11.206;2023-04-25T07:09:18;7.35;;;2.42;;
53022;SDS011;38913;44.338;11.206;2023-04-25T07:11:43;4.82;;;1.90;;
53022;SDS011;38913;44.338;11.206;2023-04-25T07:14:09;3.78;;;2.58;;
53022;SDS011;38913;44.338;11.206;2023-04-25T07:16:34;4.13;;;1.80;;
53022;SDS011;38913;44.338;11.206;2023-04-25T07:18:59;5.45;;;1.77;;
53022;SDS011;38913;44.338;11.206;2023-04-25T07:21:25;4.78;;;1.73;;
53022;SDS011;38913;44.338;11.206;2023-04-25T07:23:51;4.10;;;1.60;;
53022;SDS011;38913;44.338;11.206;2023-04-25T07:26:16;3.53;;;1.60;;
53022;SDS011;38913;44.338;11.206;2023-04-25T07:28:42;5.13;;;1.88;;
53022;SDS011;38913;44.338;11.206;2023-04-25T07:31:08;5.45;;;1.80;;
53022;SDS011;38913;44.338;11.206;2023-04-25T07:33:33;4.70;;;1.83;;
53022;SDS011;38913;44.338;11.206;2023-04-25T07:35:59;3.72;;;1.40;;
53022;SDS011;38913;44.338;11.206;2023-04-25T07:38:25;7.25;;;1.80;;
53022;SDS011;38913;44.338;11.206;2023-04-25T07:40:50;6.47;;;1.37;;
53022;SDS011;38913;44.338;11.206;2023-04-25T07:43:16;4.32;;;1.70;;
53022;SDS011;38913;44.338;11.206;2023-04-25T07:45:44;3.50;;;1.40;;
53022;SDS011;38913;44.338;11.206;2023-04-25T07:48:09;4.13;;;1.58;;
53022;SDS011;38913;44.338;11.206;2023-04-25T07:50:35;3.17;;;1.38;;
53022;SDS011;38913;44.338;11.206;2023-04-25T07:53:01;3.72;;;1.38;;
53022;SDS011;38913;44.338;11.206;2023-04-25T07:55:26;5.00;;;1.30;;
53022;SDS011;38913;44.338;11.206;2023-04-25T07:57:51;3.65;;;2.03;;
53022;SDS011;38913;44.338;11.206;2023-04-25T08:00:17;5.13;;;1.67;;
53022;SDS011;38913;44.338;11.206;2023-04-25T08:02:43;4.07;;;2.08;;
53022;SDS011;38913;44.338;11.206;2023-04-25T08:05:08;4.60;;;2.28;;
53022;SDS011;38913;44.338;11.206;2023-04-25T08:07:37;4.18;;;2.53;;
53022;SDS011;38913;44.338;11.206;2023-04-25T08:10:04;5.85;;;2.75;;
53022;SDS011;38913;44.338;11.206;2023-04-25T08:12:30;7.03;;;3.70;;
53022;SDS011;38913;44.338;11.206;2023-04-25T08:14:56;4.45;;;4.00;;
53022;SDS011;38913;44.338;11.206;2023-04-25T08:17:22;6.10;;;5.35;;
53022;SDS011;38913;44.338;11.206;2023-04-25T08:19:48;8.30;;;6.83;;
53022;SDS011;38913;44.338;11.206;2023-04-25T08:22:13;7.18;;;6.45;;
53022;SDS011;38913;44.338;11.206;2023-04-25T08:24:39;9.32;;;6.80;;
53022;SDS011;38913;44.338;11.206;2023-04-25T08:27:05;8.32;;;7.38;;
53022;SDS011;38913;44.338;11.206;2023-04-25T08:29:32;8.25;;;6.35;;
53022;SDS011;38913;44.338;11.206;2023-04-25T08:31:58;7.25;;;6.55;;
53022;SDS011;38913;44.338;11.206;2023-04-25T08:34:25;8.00;;;6.32;;
53022;SDS011;38913;44.338;11.206;2023-04-25T08:36:51;7.22;;;6.55;;
53022;SDS011;38913;44.338;11.206;2023-04-25T08:39:16;7.55;;;6.47;;
53022;SDS011;38913;44.338;11.206;2023-04-25T08:41:41;8.60;;;7.00;;
53022;SDS011;38913;44.338;11.206;2023-04-25T08:44:08;7.88;;;5.90;;
53022;SDS011;38913;44.338;11.206;2023-04-25T08:46:34;6.63;;;5.20;;
53022;SDS011;38913;44.338;11.206;2023-04-25T08:49:00;5.80;;;4.95;;
53022;SDS011;38913;44.338;11.206;2023-04-25T08:51:26;5.85;;;4.90;;
53022;SDS011;38913;44.338;11.206;2023-04-25T08:53:52;6.43;;;5.43;;
53022;SDS011;38913;44.338;11.206;2023-04-25T08:56:18;7.00;;;5.13;;
53022;SDS011;38913;44.338;11.206;2023-04-25T08:58:47;7.18;;;5.30;;
53022;SDS011;38913;44.338;11.206;2023-04-25T09:01:12;6.88;;;4.70;;
53022;SDS011;38913;44.338;11.206;2023-04-25T09:03:37;5.77;;;4.70;;
53022;SDS011;38913;44.338;11.206;2023-04-25T09:06:03;6.57;;;5.90;;
53022;SDS011;38913;44.338;11.206;2023-04-25T09:08:28;7.53;;;6.18;;
53022;SDS011;38913;44.338;11.206;2023-04-25T09:10:53;7.38;;;6.30;;
53022;SDS011;38913;44.338;11.206;2023-04-25T09:13:25;7.40;;;6.70;;
53022;SDS011;38913;44.338;11.206;2023-04-25T09:15:52;8.98;;;6.85;;
53022;SDS011;38913;44.338;11.206;2023-04-25T09:18:24;9.93;;;6.75;;
53022;SDS011;38913;44.338;11.206;2023-04-25T09:20:53;9.32;;;7.15;;
53022;SDS011;38913;44.338;11.206;2023-04-25T09:23:18;8.30;;;7.40;;
53022;SDS011;38913;44.338;11.206;2023-04-25T09:25:45;11.13;;;7.85;;
53022;SDS011;38913;44.338;11.206;2023-04-25T09:28:12;9.50;;;7.53;;
53022;SDS011;38913;44.338;11.206;2023-04-25T09:30:37;9.13;;;8.23;;
53022;SDS011;38913;44.338;11.206;2023-04-25T09:33:06;8.77;;;6.90;;
53022;SDS011;38913;44.338;11.206;2023-04-25T09:35:42;8.10;;;7.30;;
53022;SDS011;38913;44.338;11.206;2023-04-25T09:38:11;8.43;;;7.38;;
53022;SDS011;38913;44.338;11.206;2023-04-25T09:40:44;8.73;;;7.82;;
53022;SDS011;38913;44.338;11.206;2023-04-25T09:43:19;7.38;;;6.65;;
53022;SDS011;38913;44.338;11.206;2023-04-25T09:45:45;7.45;;;6.72;;
53022;SDS011;38913;44.338;11.206;2023-04-25T09:48:12;6.28;;;5.68;;
53022;SDS011;38913;44.338;11.206;2023-04-25T09:50:41;6.07;;;5.47;;
53022;SDS011;38913;44.338;11.206;2023-04-25T09:53:06;5.70;;;4.70;;
53022;SDS011;38913;44.338;11.206;2023-04-25T09:55:32;5.73;;;4.57;;
53022;SDS011;38913;44.338;11.206;2023-04-25T09:57:59;3.45;;;3.08;;
53022;SDS011;38913;44.338;11.206;2023-04-25T10:00:28;5.85;;;2.83;;
53022;SDS011;38913;44.338;11.206;2023-04-25T10:02:53;3.63;;;2.63;;
53022;SDS011;38913;44.338;11.206;2023-04-25T10:05:19;4.82;;;2.35;;
53022;SDS011;38913;44.338;11.206;2023-04-25T10:07:45;2.95;;;2.08;;
53022;SDS011;38913;44.338;11.206;2023-04-25T10:10:10;1.90;;;1.80;;
53022;SDS011;38913;44.338;11.206;2023-04-25T10:12:37;2.35;;;1.70;;
53022;SDS011;38913;44.338;11.206;2023-04-25T10:15:04;2.50;;;1.40;;
53022;SDS011;38913;44.338;11.206;2023-04-25T10:17:30;1.60;;;1.17;;
53022;SDS011;38913;44.338;11.206;2023-04-25T10:19:56;2.10;;;1.35;;
53022;SDS011;38913;44.338;11.206;2023-04-25T10:22:37;2.22;;;1.25;;
53022;SDS011;38913;44.338;11.206;2023-04-25T10:25:04;1.85;;;1.20;;
53022;SDS011;38913;44.338;11.206;2023-04-25T10:27:30;2.45;;;1.17;;
53022;SDS011;38913;44.338;11.206;2023-04-25T10:30:02;1.92;;;1.08;;
53022;SDS011;38913;44.338;11.206;2023-04-25T10:32:31;2.65;;;1.00;;
53022;SDS011;38913;44.338;11.206;2023-04-25T10:34:57;1.35;;;1.10;;
53022;SDS011;38913;44.338;11.206;2023-04-25T10:37:23;2.03;;;1.00;;
53022;SDS011;38913;44.338;11.206;2023-04-25T10:39:48;1.48;;;1.20;;
53022;SDS011;38913;44.338;11.206;2023-04-25T10:42:14;1.47;;;0.90;;
53022;SDS011;38913;44.338;11.206;2023-04-25T10:44:39;1.77;;;1.20;;
53022;SDS011;38913;44.338;11.206;2023-04-25T10:47:06;1.13;;;0.98;;
53022;SDS011;38913;44.338;11.206;2023-04-25T10:54:49;2.45;;;0.60;;
53022;SDS011;38913;44.338;11.206;2023-04-25T10:57:26;1.25;;;0.80;;
53022;SDS011;38913;44.338;11.206;2023-04-25T10:59:52;0.93;;;0.80;;
53022;SDS011;38913;44.338;11.206;2023-04-25T11:02:17;1.70;;;0.90;;
53022;SDS011;38913;44.338;11.206;2023-04-25T11:04:43;1.40;;;1.00;;
53022;SDS011;38913;44.338;11.206;2023-04-25T11:09:35;1.40;;;0.80;;
53022;SDS011;38913;44.338;11.206;2023-04-25T11:12:00;1.00;;;0.80;;
53022;SDS011;38913;44.338;11.206;2023-04-25T11:14:26;1.23;;;0.80;;
53022;SDS011;38913;44.338;11.206;2023-04-25T11:16:55;1.65;;;0.90;;
53022;SDS011;38913;44.338;11.206;2023-04-25T11:19:21;1.27;;;0.80;;
53022;SDS011;38913;44.338;11.206;2023-04-25T11:21:46;1.80;;;0.80;;
53022;SDS011;38913;44.338;11.206;2023-04-25T11:24:11;2.03;;;0.73;;
53022;SDS011;38913;44.338;11.206;2023-04-25T11:26:36;0.75;;;0.63;;
53022;SDS011;38913;44.338;11.206;2023-04-25T11:29:02;1.88;;;0.73;;
53022;SDS011;38913;44.338;11.206;2023-04-25T11:31:28;2.08;;;0.80;;
53022;SDS011;38913;44.338;11.206;2023-04-25T11:33:54;1.58;;;0.70;;
53022;SDS011;38913;44.338;11.206;2023-04-25T11:36:20;1.88;;;0.60;;
53022;SDS011;38913;44.338;11.206;2023-04-25T11:38:45;2.00;;;0.70;;
53022;SDS011;38913;44.338;11.206;2023-04-25T11:41:10;0.90;;;0.60;;
53022;SDS011;38913;44.338;11.206;2023-04-25T11:43:36;0.70;;;0.60;;
53022;SDS011;38913;44.338;11.206;2023-04-25T11:46:06;1.85;;;0.60;;
53022;SDS011;38913;44.338;11.206;2023-04-25T11:48:36;1.05;;;0.40;;
53022;SDS011;38913;44.338;11.206;2023-04-25T11:51:01;0.80;;;0.45;;
53022;SDS011;38913;44.338;11.206;2023-04-25T11:53:26;0.70;;;0.57;;
53022;SDS011;38913;44.338;11.206;2023-04-25T11:55:53;0.75;;;0.57;;
53022;SDS011;38913;44.338;11.206;2023-04-25T11:58:18;1.00;;;0.63;;
53022;SDS011;38913;44.338;11.206;2023-04-25T12:00:44;3.33;;;0.60;;
53022;SDS011;38913;44.338;11.206;2023-04-25T12:03:09;0.63;;;0.60;;
53022;SDS011;38913;44.338;11.206;2023-04-25T12:05:34;1.33;;;0.53;;
53022;SDS011;38913;44.338;11.206;2023-04-25T12:08:10;2.30;;;0.60;;
53022;SDS011;38913;44.338;11.206;2023-04-25T12:10:37;1.20;;;0.70;;
53022;SDS011;38913;44.338;11.206;2023-04-25T12:13:17;1.73;;;0.70;;
53022;SDS011;38913;44.338;11.206;2023-04-25T12:15:42;0.85;;;0.63;;
53022;SDS011;38913;44.338;11.206;2023-04-25T12:18:07;0.60;;;0.50;;
53022;SDS011;38913;44.338;11.206;2023-04-25T12:20:32;0.50;;;0.47;;
53022;SDS011;38913;44.338;11.206;2023-04-25T12:22:58;1.20;;;0.50;;
53022;SDS011;38913;44.338;11.206;2023-04-25T12:33:20;1.20;;;0.57;;
53022;SDS011;38913;44.338;11.206;2023-04-25T12:35:45;0.65;;;0.60;;
53022;SDS011;38913;44.338;11.206;2023-04-25T12:38:10;0.67;;;0.50;;
53022;SDS011;38913;44.338;11.206;2023-04-25T12:40:36;1.40;;;0.50;;
53022;SDS011;38913;44.338;11.206;2023-04-25T12:43:02;0.65;;;0.40;;
53022;SDS011;38913;44.338;11.206;2023-04-25T12:45:27;0.30;;;0.30;;
53022;SDS011;38913;44.338;11.206;2023-04-25T12:47:52;0.90;;;0.53;;
53022;SDS011;38913;44.338;11.206;2023-04-25T12:50:17;1.10;;;0.40;;
53022;SDS011;38913;44.338;11.206;2023-04-25T12:52:43;0.80;;;0.40;;
53022;SDS011;38913;44.338;11.206;2023-04-25T12:55:14;0.63;;;0.40;;
53022;SDS011;38913;44.338;11.206;2023-04-25T12:57:39;0.73;;;0.40;;
53022;SDS011;38913;44.338;11.206;2023-04-25T13:00:04;1.53;;;0.30;;
53022;SDS011;38913;44.338;11.206;2023-04-25T13:02:32;0.77;;;0.40;;
53022;SDS011;38913;44.338;11.206;2023-04-25T13:04:58;0.57;;;0.50;;
53022;SDS011;38913;44.338;11.206;2023-04-25T13:07:23;1.40;;;0.50;;
53022;SDS011;38913;44.338;11.206;2023-04-25T13:09:49;0.35;;;0.30;;
53022;SDS011;38913;44.338;11.206;2023-04-25T13:12:14;0.70;;;0.40;;
53022;SDS011;38913;44.338;11.206;2023-04-25T13:14:40;0.98;;;0.40;;
53022;SDS011;38913;44.338;11.206;2023-04-25T13:17:05;1.73;;;0.63;;
53022;SDS011;38913;44.338;11.206;2023-04-25T13:19:31;0.70;;;0.40;;
53022;SDS011;38913;44.338;11.206;2023-04-25T13:21:56;0.70;;;0.40;;
53022;SDS011;38913;44.338;11.206;2023-04-25T13:24:21;0.68;;;0.40;;
53022;SDS011;38913;44.338;11.206;2023-04-25T13:26:46;0.47;;;0.33;;
53022;SDS011;38913;44.338;11.206;2023-04-25T13:29:12;0.60;;;0.40;;
53022;SDS011;38913;44.338;11.206;2023-04-25T13:31:37;0.50;;;0.33;;
53022;SDS011;38913;44.338;11.206;2023-04-25T13:34:02;0.43;;;0.30;;
53022;SDS011;38913;44.338;11.206;2023-04-25T13:36:27;0.95;;;0.30;;
53022;SDS011;38913;44.338;11.206;2023-04-25T13:38:53;0.50;;;0.30;;
53022;SDS011;38913;44.338;11.206;2023-04-25T13:41:18;0.60;;;0.30;;
53022;SDS011;38913;44.338;11.206;2023-04-25T13:43:43;0.70;;;0.50;;
53022;SDS011;38913;44.338;11.206;2023-04-25T13:46:09;1.48;;;0.32;;
53022;SDS011;38913;44.338;11.206;2023-04-25T13:48:34;0.40;;;0.30;;
53022;SDS011;38913;44.338;11.206;2023-04-25T13:51:00;0.80;;;0.38;;
53022;SDS011;38913;44.338;11.206;2023-04-25T13:53:25;0.30;;;0.30;;
53022;SDS011;38913;44.338;11.206;2023-04-25T13:55:51;0.50;;;0.50;;
53022;SDS011;38913;44.338;11.206;2023-04-25T13:58:16;1.37;;;0.40;;
53022;SDS011;38913;44.338;11.206;2023-04-25T14:00:41;0.30;;;0.30;;
53022;SDS011;38913;44.338;11.206;2023-04-25T14:03:08;0.65;;;0.40;;
53022;SDS011;38913;44.338;11.206;2023-04-25T14:05:36;0.70;;;0.40;;
53022;SDS011;38913;44.338;11.206;2023-04-25T14:08:03;1.42;;;0.40;;
53022;SDS011;38913;44.338;11.206;2023-04-25T14:10:28;0.75;;;0.40;;
53022;SDS011;38913;44.338;11.206;2023-04-25T14:12:54;1.13;;;0.50;;
53022;SDS011;38913;44.338;11.206;2023-04-25T14:15:19;0.60;;;0.47;;
53022;SDS011;38913;44.338;11.206;2023-04-25T14:17:45;0.70;;;0.50;;
53022;SDS011;38913;44.338;11.206;2023-04-25T14:20:10;2.10;;;0.55;;
53022;SDS011;38913;44.338;11.206;2023-04-25T14:22:36;2.05;;;0.60;;
53022;SDS011;38913;44.338;11.206;2023-04-25T14:25:02;1.45;;;0.50;;
53022;SDS011;38913;44.338;11.206;2023-04-25T14:27:28;1.05;;;0.50;;
53022;SDS011;38913;44.338;11.206;2023-04-25T14:29:53;0.80;;;0.50;;
53022;SDS011;38913;44.338;11.206;2023-04-25T14:32:18;1.17;;;0.50;;
53022;SDS011;38913;44.338;11.206;2023-04-25T14:34:45;1.00;;;0.50;;
53022;SDS011;38913;44.338;11.206;2023-04-25T14:37:10;1.50;;;0.50;;
53022;SDS011;38913;44.338;11.206;2023-04-25T14:39:35;1.20;;;0.50;;
53022;SDS011;38913;44.338;11.206;2023-04-25T14:42:01;0.70;;;0.40;;